Rhourd El Adra — 7TBS — position and weather

sailwx.info

Track history (hours):
 
Tides and Currents Weather Stations Pressure Air Temp Water Temp Dewpoint Dewpoint Depression Visibility Wind Speed Wind Dir Waves Ship Positions

Rhourd El Adra

Last reported at 2014-Sep-21 01:33 UTC. Time now 2014-Sep-21 02:06 UTC.
Position N 38°25' E 009°27'.

Length 156 m; draft 8.6 m.

Type: Ship (hazmat cat C). MMSI: 605026210.

Date/timePositionNaut miles runAvg speedWind from/ knotsBaromVisibWave heightAir tempDewpointWater temp
2014-Sep-21 01:33N 38°25' E 009°27'1515.1
2014-Sep-21 00:33N 38°16' E 009°11'1615.4
2014-Sep-20 23:33N 38°08' E 008°55'1515.4
2014-Sep-20 22:33N 37°59' E 008°39'1615.6
2014-Sep-20 21:33N 37°51' E 008°22'1313.6
2014-Sep-20 20:33N 37°43' E 008°08'7 7.3
2014-Sep-20 19:33N 37°47' E 008°16'13015.4
2014-Sep-20 11:05N 37°09' E 005°39'1015.8
2014-Sep-20 10:29N 37°09' E 005°27'1516.4
2014-Sep-20 09:33N 37°07' E 005°08'3517.0
2014-Sep-20 07:28N 37°06' E 004°24'1415.6
2014-Sep-20 06:33N 37°07' E 004°06'1615.9
2014-Sep-20 05:33N 37°06' E 003°46'3416.9
2014-Sep-20 03:33N 36°59' E 003°04'1717.2
2014-Sep-20 02:33N 36°56' E 002°43'3316.6
2014-Sep-20 00:33N 36°47' E 002°03'1616.2
2014-Sep-19 23:33N 36°45' E 001°43'1515.4
2014-Sep-19 22:33N 36°42' E 001°24'1615.4
2014-Sep-19 21:31N 36°38' E 001°05'4715.8
2014-Sep-19 18:33N 36°18' E 000°12'2215.0
2014-Sep-19 17:07N 36°01' W 000°04'  
2014-Sep-16 18:33N 36°01' W 000°06'1 0.6
2014-Sep-16 17:33N 36°00' W 000°06'1 0.5
2014-Sep-16 16:17N 35°60' W 000°06'2 2.2
2014-Sep-16 15:30N 35°58' W 000°08'6 6.8
2014-Sep-16 14:33N 35°52' W 000°11'2 1.1
2014-Sep-16 13:11N 35°54' W 000°11'0 0.7
2014-Sep-16 12:33N 35°54' W 000°11'1 0.6
2014-Sep-16 11:30N 35°55' W 000°11'1 0.6
2014-Sep-16 10:33N 35°56' W 000°11'11 8.3
2014-Sep-16 09:13N 36°07' W 000°10'5 7.7
2014-Sep-16 08:32N 36°12' W 000°09'1 1.1
2014-Sep-16 07:33N 36°11' W 000°09'1 1.0
2014-Sep-16 06:23N 36°10' W 000°10'1 0.9
2014-Sep-16 05:33N 36°09' W 000°11'1 0.9
2014-Sep-16 04:33N 36°08' W 000°11'1 0.8
2014-Sep-16 03:29N 36°08' W 000°12'1 0.7
2014-Sep-16 01:26N 36°06' W 000°12'3 0.8
2014-Sep-15 21:22N 36°07' W 000°08'1111.2
2014-Sep-15 20:22N 36°14' E 000°02'1415.2
2014-Sep-15 19:25N 36°20' E 000°18'1815.8
2014-Sep-15 18:19N 36°28' E 000°38'1216.2
2014-Sep-15 17:33N 36°33' E 000°52'1816.3
2014-Sep-15 16:29N 36°40' E 001°12'1515.7
2014-Sep-15 15:33N 36°43' E 001°30'1715.4
2014-Sep-15 14:26N 36°46' E 001°51'1815.2
2014-Sep-15 13:16N 36°50' E 002°12'1114.8
2014-Sep-15 12:31N 36°53' E 002°25'17115.5
2014-Sep-15 01:30N 37°29' E 005°55'10116.1
2014-Sep-14 19:13N 37°56' E 007°58'34115.0
2014-Sep-13 20:28N 40°50' E 014°18'0 0.0
2014-Sep-13 19:28N 40°50' E 014°18'0 0.0
2014-Sep-13 09:22N 40°50' E 014°18'0 0.0
2014-Sep-11 21:06N 40°50' E 014°18'2 3.3
2014-Sep-11 20:33N 40°48' E 014°18'9 8.7
2014-Sep-11 19:33N 40°43' E 014°09'1515.0
2014-Sep-11 18:33N 40°34' E 013°53'1715.6
2014-Sep-11 17:27N 40°27' E 013°32'10615.4
2014-Sep-11 10:33N 39°36' E 011°30'9315.2
2014-Sep-11 04:27N 38°52' E 009°45'1415.1
2014-Sep-11 03:33N 38°43' E 009°32'1514.8
2014-Sep-11 02:31N 38°33' E 009°17'  
Track history (hours):
 
Tides and Currents Weather Stations Pressure Air Temp Water Temp Dewpoint Dewpoint Depression Visibility Wind Speed Wind Dir Waves Ship Positions

Rhourd El Adra

Last reported at 2014-Sep-21 01:33 UTC. Time now 2014-Sep-21 02:06 UTC.
Position N 38°25' E 009°27'.

Length 156 m; draft 8.6 m.

Type: Ship (hazmat cat C). MMSI: 605026210.

Date/timePositionNaut miles runAvg speedWind from/ knotsBaromVisibWave heightAir tempDewpointWater temp
2014-Sep-21 01:33N 38°25' E 009°27'1515.1
2014-Sep-21 00:33N 38°16' E 009°11'1615.4
2014-Sep-20 23:33N 38°08' E 008°55'1515.4
2014-Sep-20 22:33N 37°59' E 008°39'1615.6
2014-Sep-20 21:33N 37°51' E 008°22'1313.6
2014-Sep-20 20:33N 37°43' E 008°08'7 7.3
2014-Sep-20 19:33N 37°47' E 008°16'13015.4
2014-Sep-20 11:05N 37°09' E 005°39'1015.8
2014-Sep-20 10:29N 37°09' E 005°27'1516.4
2014-Sep-20 09:33N 37°07' E 005°08'3517.0
2014-Sep-20 07:28N 37°06' E 004°24'1415.6
2014-Sep-20 06:33N 37°07' E 004°06'1615.9
2014-Sep-20 05:33N 37°06' E 003°46'3416.9
2014-Sep-20 03:33N 36°59' E 003°04'1717.2
2014-Sep-20 02:33N 36°56' E 002°43'3316.6
2014-Sep-20 00:33N 36°47' E 002°03'1616.2
2014-Sep-19 23:33N 36°45' E 001°43'1515.4
2014-Sep-19 22:33N 36°42' E 001°24'1615.4
2014-Sep-19 21:31N 36°38' E 001°05'4715.8
2014-Sep-19 18:33N 36°18' E 000°12'2215.0
2014-Sep-19 17:07N 36°01' W 000°04'  
2014-Sep-16 18:33N 36°01' W 000°06'1 0.6
2014-Sep-16 17:33N 36°00' W 000°06'1 0.5
2014-Sep-16 16:17N 35°60' W 000°06'2 2.2
2014-Sep-16 15:30N 35°58' W 000°08'6 6.8
2014-Sep-16 14:33N 35°52' W 000°11'2 1.1
2014-Sep-16 13:11N 35°54' W 000°11'0 0.7
2014-Sep-16 12:33N 35°54' W 000°11'1 0.6
2014-Sep-16 11:30N 35°55' W 000°11'1 0.6
2014-Sep-16 10:33N 35°56' W 000°11'11 8.3
2014-Sep-16 09:13N 36°07' W 000°10'5 7.7
2014-Sep-16 08:32N 36°12' W 000°09'1 1.1
2014-Sep-16 07:33N 36°11' W 000°09'1 1.0
2014-Sep-16 06:23N 36°10' W 000°10'1 0.9
2014-Sep-16 05:33N 36°09' W 000°11'1 0.9
2014-Sep-16 04:33N 36°08' W 000°11'1 0.8
2014-Sep-16 03:29N 36°08' W 000°12'1 0.7
2014-Sep-16 01:26N 36°06' W 000°12'3 0.8
2014-Sep-15 21:22N 36°07' W 000°08'1111.2
2014-Sep-15 20:22N 36°14' E 000°02'1415.2
2014-Sep-15 19:25N 36°20' E 000°18'1815.8
2014-Sep-15 18:19N 36°28' E 000°38'1216.2
2014-Sep-15 17:33N 36°33' E 000°52'1816.3
2014-Sep-15 16:29N 36°40' E 001°12'1515.7
2014-Sep-15 15:33N 36°43' E 001°30'1715.4
2014-Sep-15 14:26N 36°46' E 001°51'1815.2
2014-Sep-15 13:16N 36°50' E 002°12'1114.8
2014-Sep-15 12:31N 36°53' E 002°25'17115.5
2014-Sep-15 01:30N 37°29' E 005°55'10116.1
2014-Sep-14 19:13N 37°56' E 007°58'34115.0
2014-Sep-13 20:28N 40°50' E 014°18'0 0.0
2014-Sep-13 19:28N 40°50' E 014°18'0 0.0
2014-Sep-13 09:22N 40°50' E 014°18'0 0.0
2014-Sep-11 21:06N 40°50' E 014°18'2 3.3
2014-Sep-11 20:33N 40°48' E 014°18'9 8.7
2014-Sep-11 19:33N 40°43' E 014°09'1515.0
2014-Sep-11 18:33N 40°34' E 013°53'1715.6
2014-Sep-11 17:27N 40°27' E 013°32'10615.4
2014-Sep-11 10:33N 39°36' E 011°30'9315.2
2014-Sep-11 04:27N 38°52' E 009°45'1415.1
2014-Sep-11 03:33N 38°43' E 009°32'1514.8
2014-Sep-11 02:31N 38°33' E 009°17'  

Dump ship's entire track history